Terminal Aerodrome Forecast
Issued by NWS

Home | Current Version | Previous Version | Text Only | Print | Product List | Glossary On
Versions: 1 2 3 4 5 6 7 8 9 10 11 12 13 14 15 16 17 18 19 20 21 22 23 24 25 26 27 28 29 30 31
658
FTUS43 KLSX 251720
TAFCPS
TAF
KCPS 251720Z 2518/2618 36008KT P6SM SCT030 OVC120
      TEMPO 2518/2521 OVC030
     FM252300 02006KT P6SM VCSH OVC060
     FM260600 04005KT P6SM OVC060
     FM261700 34007KT P6SM SCT250=

USA.gov is the U.S. government's official web portal to all federal, state and local government web resources and services.